sensor_id;sensor_type;location;lat;lon;timestamp;pressure;altitude;pressure_sealevel;temperature;humidity
23281;BME280;11809;56.390;-3.266;2022-11-18T00:01:11;98943.41;;;15.36;61.43
23281;BME280;11809;56.390;-3.266;2022-11-18T00:03:39;98952.47;;;15.34;61.36
23281;BME280;11809;56.390;-3.266;2022-11-18T00:06:10;98930.09;;;15.17;61.59
23281;BME280;11809;56.390;-3.266;2022-11-18T00:08:38;98940.50;;;15.30;61.59
23281;BME280;11809;56.390;-3.266;2022-11-18T00:11:07;98954.69;;;15.29;61.64
23281;BME280;11809;56.390;-3.266;2022-11-18T00:13:36;98956.63;;;15.27;61.56
23281;BME280;11809;56.390;-3.266;2022-11-18T00:16:22;98959.38;;;15.25;61.78
23281;BME280;11809;56.390;-3.266;2022-11-18T00:18:49;98961.34;;;15.23;61.62
23281;BME280;11809;56.390;-3.266;2022-11-18T00:21:17;98965.94;;;15.21;61.75
23281;BME280;11809;56.390;-3.266;2022-11-18T00:23:44;98954.63;;;15.19;61.91
23281;BME280;11809;56.390;-3.266;2022-11-18T00:26:12;98944.53;;;15.03;61.62
23281;BME280;11809;56.390;-3.266;2022-11-18T00:28:40;98962.84;;;15.16;61.76
23281;BME280;11809;56.390;-3.266;2022-11-18T00:31:10;98937.56;;;15.02;61.85
23281;BME280;11809;56.390;-3.266;2022-11-18T00:33:38;98965.59;;;15.14;61.99
23281;BME280;11809;56.390;-3.266;2022-11-18T00:36:08;98970.88;;;15.14;61.91
23281;BME280;11809;56.390;-3.266;2022-11-18T00:38:36;98976.31;;;15.13;62.15
23281;BME280;11809;56.390;-3.266;2022-11-18T00:41:06;98952.97;;;14.97;61.94
23281;BME280;11809;56.390;-3.266;2022-11-18T00:43:33;98963.34;;;15.10;62.01
23281;BME280;11809;56.390;-3.266;2022-11-18T00:46:01;98973.09;;;15.09;62.19
23281;BME280;11809;56.390;-3.266;2022-11-18T00:48:29;98946.25;;;14.93;61.97
23281;BME280;11809;56.390;-3.266;2022-11-18T00:50:58;98952.53;;;14.92;62.00
23281;BME280;11809;56.390;-3.266;2022-11-18T00:53:26;98970.69;;;15.06;62.36
23281;BME280;11809;56.390;-3.266;2022-11-18T00:55:52;98972.66;;;15.04;61.98
23281;BME280;11809;56.390;-3.266;2022-11-18T00:58:20;98970.16;;;15.03;62.24
23281;BME280;11809;56.390;-3.266;2022-11-18T01:00:50;98975.44;;;15.03;62.30
23281;BME280;11809;56.390;-3.266;2022-11-18T01:03:19;98976.41;;;15.02;62.28
23281;BME280;11809;56.390;-3.266;2022-11-18T01:05:46;98973.88;;;15.00;62.32
23281;BME280;11809;56.390;-3.266;2022-11-18T01:08:14;98981.84;;;15.00;62.46
23281;BME280;11809;56.390;-3.266;2022-11-18T01:10:41;98977.50;;;14.99;62.25
23281;BME280;11809;56.390;-3.266;2022-11-18T01:13:12;98978.44;;;14.98;62.28
23281;BME280;11809;56.390;-3.266;2022-11-18T01:15:55;98978.44;;;14.98;62.54
23281;BME280;11809;56.390;-3.266;2022-11-18T01:18:26;98981.09;;;14.98;62.43
23281;BME280;11809;56.390;-3.266;2022-11-18T01:20:59;98977.63;;;14.98;62.29
23281;BME280;11809;56.390;-3.266;2022-11-18T01:23:27;98961.94;;;14.85;62.55
23281;BME280;11809;56.390;-3.266;2022-11-18T01:25:54;98978.75;;;14.95;62.49
23281;BME280;11809;56.390;-3.266;2022-11-18T01:28:21;98970.91;;;14.94;62.49
23281;BME280;11809;56.390;-3.266;2022-11-18T01:30:49;98976.34;;;14.92;62.47
23281;BME280;11809;56.390;-3.266;2022-11-18T01:33:16;98982.59;;;14.91;62.69
23281;BME280;11809;56.390;-3.266;2022-11-18T01:35:43;98978.25;;;14.90;62.71
23281;BME280;11809;56.390;-3.266;2022-11-18T01:38:12;98959.09;;;14.77;62.47
23281;BME280;11809;56.390;-3.266;2022-11-18T01:40:40;98980.09;;;14.90;62.83
23281;BME280;11809;56.390;-3.266;2022-11-18T01:43:15;98986.19;;;14.90;62.76
23281;BME280;11809;56.390;-3.266;2022-11-18T01:45:45;98979.25;;;14.89;62.58
23281;BME280;11809;56.390;-3.266;2022-11-18T01:48:30;98960.34;;;14.73;62.75
23281;BME280;11809;56.390;-3.266;2022-11-18T01:51:06;98985.63;;;14.87;62.64
23281;BME280;11809;56.390;-3.266;2022-11-18T01:53:40;98985.63;;;14.87;62.75
23281;BME280;11809;56.390;-3.266;2022-11-18T01:56:15;98962.13;;;14.73;62.85
23281;BME280;11809;56.390;-3.266;2022-11-18T01:58:53;98981.19;;;14.87;62.82
23281;BME280;11809;56.390;-3.266;2022-11-18T02:01:21;98977.81;;;14.85;62.86
23281;BME280;11809;56.390;-3.266;2022-11-18T02:03:49;98992.72;;;14.86;62.89
23281;BME280;11809;56.390;-3.266;2022-11-18T02:06:16;98983.94;;;14.86;62.80
23281;BME280;11809;56.390;-3.266;2022-11-18T02:08:43;98985.88;;;14.84;62.94
23281;BME280;11809;56.390;-3.266;2022-11-18T02:11:12;98977.00;;;14.85;62.80
23281;BME280;11809;56.390;-3.266;2022-11-18T02:14:02;98973.50;;;14.84;62.61
23281;BME280;11809;56.390;-3.266;2022-11-18T02:30:15;98979.75;;;14.83;63.11
23281;BME280;11809;56.390;-3.266;2022-11-18T02:32:56;98985.03;;;14.83;62.73
23281;BME280;11809;56.390;-3.266;2022-11-18T02:35:37;98982.53;;;14.82;63.07
23281;BME280;11809;56.390;-3.266;2022-11-18T02:38:23;98971.13;;;14.81;63.00
23281;BME280;11809;56.390;-3.266;2022-11-18T02:41:31;98979.06;;;14.81;62.89
23281;BME280;11809;56.390;-3.266;2022-11-18T02:43:55;98986.13;;;14.81;62.99
23281;BME280;11809;56.390;-3.266;2022-11-18T02:46:33;98970.28;;;14.81;63.24
23281;BME280;11809;56.390;-3.266;2022-11-18T02:49:06;98969.44;;;14.80;62.95
23281;BME280;11809;56.390;-3.266;2022-11-18T02:51:35;98980.00;;;14.80;63.25
23281;BME280;11809;56.390;-3.266;2022-11-18T02:54:06;98959.88;;;14.68;63.12
23281;BME280;11809;56.390;-3.266;2022-11-18T02:56:34;98991.44;;;14.81;63.21
23281;BME280;11809;56.390;-3.266;2022-11-18T02:59:03;98982.66;;;14.80;63.07
23281;BME280;11809;56.390;-3.266;2022-11-18T03:01:32;98957.50;;;14.65;62.93
23281;BME280;11809;56.390;-3.266;2022-11-18T03:04:00;98978.34;;;14.79;63.17
23281;BME280;11809;56.390;-3.266;2022-11-18T03:14:39;98959.44;;;14.63;63.35
23281;BME280;11809;56.390;-3.266;2022-11-18T03:17:18;98954.00;;;14.65;63.19
23281;BME280;11809;56.390;-3.266;2022-11-18T03:20:08;98983.63;;;14.79;63.18
23281;BME280;11809;56.390;-3.266;2022-11-18T03:25:40;98959.44;;;14.63;63.32
23281;BME280;11809;56.390;-3.266;2022-11-18T03:30:51;98983.88;;;14.76;63.30
23281;BME280;11809;56.390;-3.266;2022-11-18T03:33:23;98991.81;;;14.76;63.20
23281;BME280;11809;56.390;-3.266;2022-11-18T03:35:52;98967.38;;;14.63;63.52
23281;BME280;11809;56.390;-3.266;2022-11-18T03:38:26;98980.91;;;14.70;63.28
23281;BME280;11809;56.390;-3.266;2022-11-18T03:40:58;98989.19;;;14.76;63.09
23281;BME280;11809;56.390;-3.266;2022-11-18T03:43:31;98995.31;;;14.77;63.30
23281;BME280;11809;56.390;-3.266;2022-11-18T03:46:07;98990.84;;;14.77;63.40
23281;BME280;11809;56.390;-3.266;2022-11-18T03:48:42;98990.03;;;14.77;63.48
23281;BME280;11809;56.390;-3.266;2022-11-18T03:51:13;98983.88;;;14.76;63.41
23281;BME280;11809;56.390;-3.266;2022-11-18T03:53:49;98988.19;;;14.77;63.24
23281;BME280;11809;56.390;-3.266;2022-11-18T03:56:22;98990.84;;;14.77;63.42
23281;BME280;11809;56.390;-3.266;2022-11-18T04:04:04;98958.72;;;14.61;63.44
23281;BME280;11809;56.390;-3.266;2022-11-18T04:06:47;98983.88;;;14.76;63.58
23281;BME280;11809;56.390;-3.266;2022-11-18T04:09:19;98983.03;;;14.76;63.15
23281;BME280;11809;56.390;-3.266;2022-11-18T04:12:03;98980.41;;;14.76;63.41
23281;BME280;11809;56.390;-3.266;2022-11-18T04:14:40;98980.41;;;14.76;63.35
23281;BME280;11809;56.390;-3.266;2022-11-18T04:17:13;98983.88;;;14.76;63.30
23281;BME280;11809;56.390;-3.266;2022-11-18T04:19:40;98978.59;;;14.76;63.19
23281;BME280;11809;56.390;-3.266;2022-11-18T04:22:08;98982.19;;;14.75;63.49
23281;BME280;11809;56.390;-3.266;2022-11-18T04:24:36;98968.97;;;14.75;63.48
23281;BME280;11809;56.390;-3.266;2022-11-18T04:27:03;98962.72;;;14.76;63.46
23281;BME280;11809;56.390;-3.266;2022-11-18T04:29:31;98963.69;;;14.75;63.56
23281;BME280;11809;56.390;-3.266;2022-11-18T04:32:00;98962.72;;;14.76;63.58
23281;BME280;11809;56.390;-3.266;2022-11-18T04:34:27;98952.47;;;14.62;63.28
23281;BME280;11809;56.390;-3.266;2022-11-18T04:36:54;98948.13;;;14.61;63.70
23281;BME280;11809;56.390;-3.266;2022-11-18T04:39:21;98961.03;;;14.75;63.46
23281;BME280;11809;56.390;-3.266;2022-11-18T04:41:48;98964.69;;;14.74;63.44
23281;BME280;11809;56.390;-3.266;2022-11-18T04:44:30;98958.53;;;14.74;63.47
23281;BME280;11809;56.390;-3.266;2022-11-18T04:47:00;98954.09;;;14.74;63.59
23281;BME280;11809;56.390;-3.266;2022-11-18T04:49:27;98961.03;;;14.75;63.28
23281;BME280;11809;56.390;-3.266;2022-11-18T04:51:55;98964.69;;;14.74;63.55
23281;BME280;11809;56.390;-3.266;2022-11-18T04:54:23;98969.97;;;14.74;63.76
23281;BME280;11809;56.390;-3.266;2022-11-18T04:56:51;98957.81;;;14.72;63.51
23281;BME280;11809;56.390;-3.266;2022-11-18T04:59:22;98970.06;;;14.73;63.60
23281;BME280;11809;56.390;-3.266;2022-11-18T05:01:49;98942.13;;;14.59;63.42
23281;BME280;11809;56.390;-3.266;2022-11-18T05:04:20;98968.28;;;14.73;63.66
23281;BME280;11809;56.390;-3.266;2022-11-18T05:06:47;98954.59;;;14.68;63.47
23281;BME280;11809;56.390;-3.266;2022-11-18T05:09:14;98967.44;;;14.73;63.50
23281;BME280;11809;56.390;-3.266;2022-11-18T05:11:42;98963.25;;;14.70;63.72
23281;BME280;11809;56.390;-3.266;2022-11-18T05:14:28;98965.88;;;14.70;63.61
23281;BME280;11809;56.390;-3.266;2022-11-18T05:16:57;98958.91;;;14.69;63.54
23281;BME280;11809;56.390;-3.266;2022-11-18T05:19:24;98950.97;;;14.69;63.54
23281;BME280;11809;56.390;-3.266;2022-11-18T05:21:51;98950.97;;;14.69;63.41
23281;BME280;11809;56.390;-3.266;2022-11-18T05:24:19;98950.16;;;14.69;63.73
23281;BME280;11809;56.390;-3.266;2022-11-18T05:26:46;98924.88;;;14.55;63.47
23281;BME280;11809;56.390;-3.266;2022-11-18T05:29:13;98938.50;;;14.71;63.80
23281;BME280;11809;56.390;-3.266;2022-11-18T05:31:40;98941.25;;;14.70;63.72
23281;BME280;11809;56.390;-3.266;2022-11-18T05:34:07;98938.75;;;14.68;63.66
23281;BME280;11809;56.390;-3.266;2022-11-18T05:36:34;98903.84;;;14.53;63.75
23281;BME280;11809;56.390;-3.266;2022-11-18T05:39:01;98931.66;;;14.69;63.65
23281;BME280;11809;56.390;-3.266;2022-11-18T05:41:28;98926.47;;;14.67;63.38
23281;BME280;11809;56.390;-3.266;2022-11-18T05:44:14;98924.16;;;14.74;64.09
23281;BME280;11809;56.390;-3.266;2022-11-18T05:46:41;98913.03;;;14.80;64.27
23281;BME280;11809;56.390;-3.266;2022-11-18T05:49:08;98907.66;;;14.81;64.07
23281;BME280;11809;56.390;-3.266;2022-11-18T05:51:35;98915.00;;;14.78;63.85
23281;BME280;11809;56.390;-3.266;2022-11-18T05:54:04;98908.41;;;14.72;63.98
23281;BME280;11809;56.390;-3.266;2022-11-18T05:59:00;98896.44;;;14.68;63.93
23281;BME280;11809;56.390;-3.266;2022-11-18T06:07:14;98890.88;;;14.71;64.05
23281;BME280;11809;56.390;-3.266;2022-11-18T06:09:46;98883.66;;;14.73;64.54
23281;BME280;11809;56.390;-3.266;2022-11-18T06:12:16;98863.16;;;14.66;64.41
23281;BME280;11809;56.390;-3.266;2022-11-18T06:14:48;98863.28;;;14.64;64.11
23281;BME280;11809;56.390;-3.266;2022-11-18T06:17:24;98877.97;;;14.78;64.33
23281;BME280;11809;56.390;-3.266;2022-11-18T06:19:53;98877.00;;;14.79;64.29
23281;BME280;11809;56.390;-3.266;2022-11-18T06:22:20;98868.94;;;14.80;64.07
23281;BME280;11809;56.390;-3.266;2022-11-18T06:24:48;98867.03;;;14.82;64.43
23281;BME280;11809;56.390;-3.266;2022-11-18T06:27:15;98865.06;;;14.84;63.99
23281;BME280;11809;56.390;-3.266;2022-11-18T06:29:42;98858.94;;;14.84;64.01
23281;BME280;11809;56.390;-3.266;2022-11-18T06:32:09;98863.13;;;14.86;64.35
23281;BME280;11809;56.390;-3.266;2022-11-18T06:34:36;98855.19;;;14.86;64.51
23281;BME280;11809;56.390;-3.266;2022-11-18T06:37:14;98855.06;;;14.88;64.53
23281;BME280;11809;56.390;-3.266;2022-11-18T06:39:42;98831.47;;;14.75;64.37
23281;BME280;11809;56.390;-3.266;2022-11-18T06:42:09;98833.84;;;14.78;64.56
23281;BME280;11809;56.390;-3.266;2022-11-18T06:44:36;98854.78;;;14.91;64.66
23281;BME280;11809;56.390;-3.266;2022-11-18T06:47:03;98854.69;;;14.92;64.56
23281;BME280;11809;56.390;-3.266;2022-11-18T06:49:31;98855.13;;;14.97;64.55
23281;BME280;11809;56.390;-3.266;2022-11-18T06:51:58;98851.47;;;14.98;64.52
23281;BME280;11809;56.390;-3.266;2022-11-18T06:54:25;98852.31;;;14.99;64.27
23281;BME280;11809;56.390;-3.266;2022-11-18T06:56:52;98845.81;;;15.03;64.80
23281;BME280;11809;56.390;-3.266;2022-11-18T06:59:18;98843.72;;;15.06;64.68
23281;BME280;11809;56.390;-3.266;2022-11-18T07:01:49;98838.88;;;15.11;64.54
23281;BME280;11809;56.390;-3.266;2022-11-18T07:04:19;98847.63;;;15.12;64.71
23281;BME280;11809;56.390;-3.266;2022-11-18T07:06:46;98838.59;;;15.14;64.49
23281;BME280;11809;56.390;-3.266;2022-11-18T07:09:13;98833.19;;;15.16;64.49
23281;BME280;11809;56.390;-3.266;2022-11-18T07:11:40;98839.59;;;15.13;64.17
23281;BME280;11809;56.390;-3.266;2022-11-18T07:14:08;98849.47;;;15.11;63.97
23281;BME280;11809;56.390;-3.266;2022-11-18T07:16:36;98854.88;;;15.10;64.17
23281;BME280;11809;56.390;-3.266;2022-11-18T07:19:08;98847.91;;;15.09;63.83
23281;BME280;11809;56.390;-3.266;2022-11-18T07:21:37;98852.50;;;15.07;63.64
23281;BME280;11809;56.390;-3.266;2022-11-18T07:24:06;98825.69;;;14.91;63.98
23281;BME280;11809;56.390;-3.266;2022-11-18T07:26:34;98857.41;;;15.11;63.94
23281;BME280;11809;56.390;-3.266;2022-11-18T07:29:01;98849.31;;;15.13;63.65
23281;BME280;11809;56.390;-3.266;2022-11-18T07:31:28;98819.47;;;15.01;63.69
23281;BME280;11809;56.390;-3.266;2022-11-18T07:33:55;98811.78;;;14.98;63.76
23281;BME280;11809;56.390;-3.266;2022-11-18T07:36:25;98843.34;;;15.11;63.92
23281;BME280;11809;56.390;-3.266;2022-11-18T07:39:01;98844.28;;;15.00;64.09
23281;BME280;11809;56.390;-3.266;2022-11-18T07:41:29;98821.34;;;14.80;63.82
23281;BME280;11809;56.390;-3.266;2022-11-18T07:43:58;98847.00;;;14.89;64.18
23281;BME280;11809;56.390;-3.266;2022-11-18T07:46:35;98857.00;;;14.86;63.87
23281;BME280;11809;56.390;-3.266;2022-11-18T07:49:07;98856.44;;;14.82;64.06
23281;BME280;11809;56.390;-3.266;2022-11-18T07:51:36;98846.94;;;14.80;64.11
23281;BME280;11809;56.390;-3.266;2022-11-18T07:54:08;98851.41;;;14.79;64.03
23281;BME280;11809;56.390;-3.266;2022-11-18T07:56:36;98850.81;;;14.76;63.99
23281;BME280;11809;56.390;-3.266;2022-11-18T07:59:03;98846.50;;;14.75;64.28
23281;BME280;11809;56.390;-3.266;2022-11-18T08:01:30;98857.22;;;14.73;64.26
23281;BME280;11809;56.390;-3.266;2022-11-18T08:04:04;98855.53;;;14.72;64.22
23281;BME280;11809;56.390;-3.266;2022-11-18T08:06:32;98850.50;;;14.69;64.44
23281;BME280;11809;56.390;-3.266;2022-11-18T08:09:01;98837.63;;;14.55;64.56
23281;BME280;11809;56.390;-3.266;2022-11-18T08:11:28;98849.81;;;14.67;64.57
23281;BME280;11809;56.390;-3.266;2022-11-18T08:13:55;98851.75;;;14.65;64.65
23281;BME280;11809;56.390;-3.266;2022-11-18T08:16:24;98868.56;;;14.64;64.54
23281;BME280;11809;56.390;-3.266;2022-11-18T08:18:51;98867.03;;;14.62;64.41
23281;BME280;11809;56.390;-3.266;2022-11-18T08:21:20;98841.06;;;14.46;64.39
23281;BME280;11809;56.390;-3.266;2022-11-18T08:23:52;98866.31;;;14.60;64.49
23281;BME280;11809;56.390;-3.266;2022-11-18T08:26:20;98861.28;;;14.56;64.53
23281;BME280;11809;56.390;-3.266;2022-11-18T08:28:48;98854.41;;;14.44;64.66
23281;BME280;11809;56.390;-3.266;2022-11-18T08:31:21;98867.66;;;14.54;64.49
23281;BME280;11809;56.390;-3.266;2022-11-18T08:33:53;98859.75;;;14.54;64.53
23281;BME280;11809;56.390;-3.266;2022-11-18T08:36:22;98865.97;;;14.53;64.54
23281;BME280;11809;56.390;-3.266;2022-11-18T08:38:51;98873.22;;;14.51;64.47
23281;BME280;11809;56.390;-3.266;2022-11-18T08:41:23;98870.47;;;14.52;64.50
23281;BME280;11809;56.390;-3.266;2022-11-18T08:43:51;98879.34;;;14.51;64.60
23281;BME280;11809;56.390;-3.266;2022-11-18T08:46:18;98860.34;;;14.37;64.70
23281;BME280;11809;56.390;-3.266;2022-11-18T08:48:45;98879.50;;;14.50;64.82
23281;BME280;11809;56.390;-3.266;2022-11-18T08:51:15;98886.56;;;14.49;64.66
23281;BME280;11809;56.390;-3.266;2022-11-18T08:53:42;98880.44;;;14.49;64.71
23281;BME280;11809;56.390;-3.266;2022-11-18T08:56:14;98880.69;;;14.46;64.70
23281;BME280;11809;56.390;-3.266;2022-11-18T08:58:42;98885.03;;;14.47;65.03
23281;BME280;11809;56.390;-3.266;2022-11-18T09:01:09;98888.63;;;14.46;65.00
23281;BME280;11809;56.390;-3.266;2022-11-18T09:03:37;98891.28;;;14.46;65.18
23281;BME280;11809;56.390;-3.266;2022-11-18T09:06:13;98896.56;;;14.46;64.89
23281;BME280;11809;56.390;-3.266;2022-11-18T09:08:41;98897.53;;;14.45;64.88
23281;BME280;11809;56.390;-3.266;2022-11-18T09:11:23;98894.91;;;14.45;64.92
23281;BME280;11809;56.390;-3.266;2022-11-18T09:13:53;98874.03;;;14.31;64.71
23281;BME280;11809;56.390;-3.266;2022-11-18T09:16:41;98900.19;;;14.45;65.07
23281;BME280;11809;56.390;-3.266;2022-11-18T09:19:09;98900.44;;;14.42;64.87
23281;BME280;11809;56.390;-3.266;2022-11-18T09:21:56;98911.81;;;14.42;65.06
23281;BME280;11809;56.390;-3.266;2022-11-18T09:24:23;98919.75;;;14.42;65.00
23281;BME280;11809;56.390;-3.266;2022-11-18T09:26:51;98914.47;;;14.42;65.22
23281;BME280;11809;56.390;-3.266;2022-11-18T09:29:19;98916.28;;;14.42;65.14
23281;BME280;11809;56.390;-3.266;2022-11-18T09:31:52;98914.59;;;14.41;65.08
23281;BME280;11809;56.390;-3.266;2022-11-18T09:34:21;98922.53;;;14.41;65.08
23281;BME280;11809;56.390;-3.266;2022-11-18T09:36:50;98927.97;;;14.39;65.08
23281;BME280;11809;56.390;-3.266;2022-11-18T09:39:23;98918.19;;;14.40;65.22
23281;BME280;11809;56.390;-3.266;2022-11-18T09:41:58;98928.78;;;14.40;65.26
23281;BME280;11809;56.390;-3.266;2022-11-18T09:47:19;98927.13;;;14.39;65.24
23281;BME280;11809;56.390;-3.266;2022-11-18T09:49:49;98937.69;;;14.39;65.22
23281;BME280;11809;56.390;-3.266;2022-11-18T09:52:22;98937.69;;;14.39;65.44
23281;BME280;11809;56.390;-3.266;2022-11-18T09:54:51;98948.25;;;14.39;65.07
23281;BME280;11809;56.390;-3.266;2022-11-18T09:57:23;98949.22;;;14.38;65.19
23281;BME280;11809;56.390;-3.266;2022-11-18T09:59:51;98948.25;;;14.39;65.28
23281;BME280;11809;56.390;-3.266;2022-11-18T10:05:26;98933.59;;;14.24;65.59
23281;BME280;11809;56.390;-3.266;2022-11-18T10:24:52;98960.16;;;14.22;65.38
23281;BME280;11809;56.390;-3.266;2022-11-18T10:27:21;98954.19;;;14.20;65.46
23281;BME280;11809;56.390;-3.266;2022-11-18T10:29:54;98992.72;;;14.34;65.58
23281;BME280;11809;56.390;-3.266;2022-11-18T10:32:23;98991.03;;;14.33;65.37
23281;BME280;11809;56.390;-3.266;2022-11-18T10:34:54;99002.31;;;14.35;65.46
23281;BME280;11809;56.390;-3.266;2022-11-18T10:37:31;99007.59;;;14.35;65.48
23281;BME280;11809;56.390;-3.266;2022-11-18T10:40:26;99001.59;;;14.33;65.63
23281;BME280;11809;56.390;-3.266;2022-11-18T10:42:54;99007.72;;;14.33;65.73
23281;BME280;11809;56.390;-3.266;2022-11-18T10:48:17;99013.03;;;14.33;65.54
23281;BME280;11809;56.390;-3.266;2022-11-18T10:50:48;99011.31;;;14.32;65.34
23281;BME280;11809;56.390;-3.266;2022-11-18T10:56:02;99022.75;;;14.33;65.71
23281;BME280;11809;56.390;-3.266;2022-11-18T10:58:34;98986.97;;;14.18;65.62
23281;BME280;11809;56.390;-3.266;2022-11-18T11:01:06;99014.94;;;14.31;65.62
23281;BME280;11809;56.390;-3.266;2022-11-18T11:03:36;99012.31;;;14.31;65.43
23281;BME280;11809;56.390;-3.266;2022-11-18T11:16:59;99023.69;;;14.32;65.56
23281;BME280;11809;56.390;-3.266;2022-11-18T11:19:42;99006.41;;;14.17;65.79
23281;BME280;11809;56.390;-3.266;2022-11-18T11:22:13;99036.09;;;14.31;65.90
23281;BME280;11809;56.390;-3.266;2022-11-18T11:24:41;99019.75;;;14.15;65.74
23281;BME280;11809;56.390;-3.266;2022-11-18T11:30:15;99036.16;;;14.30;65.86
23281;BME280;11809;56.390;-3.266;2022-11-18T11:36:00;99035.31;;;14.29;65.62
23281;BME280;11809;56.390;-3.266;2022-11-18T11:41:44;99029.22;;;14.29;65.86
23281;BME280;11809;56.390;-3.266;2022-11-18T11:47:30;99007.66;;;14.13;65.74
23281;BME280;11809;56.390;-3.266;2022-11-18T11:58:38;99025.03;;;14.26;65.81
23281;BME280;11809;56.390;-3.266;2022-11-18T12:01:45;99032.09;;;14.26;65.79
23281;BME280;11809;56.390;-3.266;2022-11-18T12:06:53;99023.34;;;14.25;65.73
23281;BME280;11809;56.390;-3.266;2022-11-18T12:14:42;99008.72;;;14.10;66.16
23281;BME280;11809;56.390;-3.266;2022-11-18T12:17:20;99032.34;;;14.23;65.83
23281;BME280;11809;56.390;-3.266;2022-11-18T12:19:49;99039.28;;;14.24;66.30
23281;BME280;11809;56.390;-3.266;2022-11-18T12:22:17;99036.66;;;14.24;65.95
23281;BME280;11809;56.390;-3.266;2022-11-18T12:24:44;99037.63;;;14.23;66.04
23281;BME280;11809;56.390;-3.266;2022-11-18T12:29:55;99032.34;;;14.23;66.08
23281;BME280;11809;56.390;-3.266;2022-11-18T12:32:37;99043.88;;;14.22;66.05
23281;BME280;11809;56.390;-3.266;2022-11-18T12:37:45;99042.22;;;14.21;66.02
23281;BME280;11809;56.390;-3.266;2022-11-18T12:40:42;99012.69;;;14.05;65.96
23281;BME280;11809;56.390;-3.266;2022-11-18T12:55:00;99031.75;;;14.19;66.10
23281;BME280;11809;56.390;-3.266;2022-11-18T12:57:31;99028.25;;;14.19;66.16
23281;BME280;11809;56.390;-3.266;2022-11-18T13:00:16;99022.97;;;14.19;66.13
23281;BME280;11809;56.390;-3.266;2022-11-18T13:02:51;99022.03;;;14.20;66.29
23281;BME280;11809;56.390;-3.266;2022-11-18T13:05:21;99014.09;;;14.20;65.99
23281;BME280;11809;56.390;-3.266;2022-11-18T13:08:01;99018.69;;;14.18;66.04
23281;BME280;11809;56.390;-3.266;2022-11-18T13:13:25;99011.69;;;14.17;66.03
23281;BME280;11809;56.390;-3.266;2022-11-18T13:15:54;99007.41;;;14.16;66.21
23281;BME280;11809;56.390;-3.266;2022-11-18T13:18:50;98992.66;;;14.02;66.04
23281;BME280;11809;56.390;-3.266;2022-11-18T13:21:36;99013.50;;;14.16;66.39
23281;BME280;11809;56.390;-3.266;2022-11-18T13:24:22;99010.03;;;14.16;66.20
23281;BME280;11809;56.390;-3.266;2022-11-18T13:26:54;98995.84;;;14.17;66.04
23281;BME280;11809;56.390;-3.266;2022-11-18T13:29:37;98985.28;;;14.17;66.18
23281;BME280;11809;56.390;-3.266;2022-11-18T13:34:52;98972.78;;;14.19;66.27
23281;BME280;11809;56.390;-3.266;2022-11-18T13:37:23;98949.31;;;14.05;66.30
23281;BME280;11809;56.390;-3.266;2022-11-18T13:39:51;98979.75;;;14.20;66.30
23281;BME280;11809;56.390;-3.266;2022-11-18T13:45:11;98973.53;;;14.21;66.32
23281;BME280;11809;56.390;-3.266;2022-11-18T13:50:39;98971.81;;;14.20;66.28
23281;BME280;11809;56.390;-3.266;2022-11-18T13:53:34;98973.63;;;14.19;66.22
23281;BME280;11809;56.390;-3.266;2022-11-18T13:56:05;98979.75;;;14.20;66.29
23281;BME280;11809;56.390;-3.266;2022-11-18T13:58:43;98990.31;;;14.20;66.27
23281;BME280;11809;56.390;-3.266;2022-11-18T14:01:33;98980.72;;;14.19;66.19
23281;BME280;11809;56.390;-3.266;2022-11-18T14:04:22;98978.19;;;14.17;66.16
23281;BME280;11809;56.390;-3.266;2022-11-18T14:06:52;98980.97;;;14.16;66.33
23281;BME280;11809;56.390;-3.266;2022-11-18T14:14:42;98977.50;;;14.15;66.62
23281;BME280;11809;56.390;-3.266;2022-11-18T14:17:21;98987.22;;;14.15;66.27
23281;BME280;11809;56.390;-3.266;2022-11-18T14:19:56;98968.03;;;14.02;66.45
23281;BME280;11809;56.390;-3.266;2022-11-18T14:22:27;98983.63;;;14.16;66.21
23281;BME280;11809;56.390;-3.266;2022-11-18T14:25:00;98984.69;;;14.13;66.52
23281;BME280;11809;56.390;-3.266;2022-11-18T14:27:45;98983.88;;;14.13;66.41
23281;BME280;11809;56.390;-3.266;2022-11-18T14:30:34;98968.03;;;14.02;66.33
23281;BME280;11809;56.390;-3.266;2022-11-18T14:33:19;98990.09;;;14.12;66.59
23281;BME280;11809;56.390;-3.266;2022-11-18T14:41:09;98986.63;;;14.11;66.61
23281;BME280;11809;56.390;-3.266;2022-11-18T14:43:36;98995.53;;;14.10;66.37
23281;BME280;11809;56.390;-3.266;2022-11-18T14:46:24;98997.31;;;14.10;66.42
23281;BME280;11809;56.390;-3.266;2022-11-18T14:48:51;98995.63;;;14.09;66.41
23281;BME280;11809;56.390;-3.266;2022-11-18T14:51:19;98991.31;;;14.08;66.68
23281;BME280;11809;56.390;-3.266;2022-11-18T14:53:46;99007.19;;;14.08;66.56
23281;BME280;11809;56.390;-3.266;2022-11-18T14:58:45;98996.84;;;14.05;66.48
23281;BME280;11809;56.390;-3.266;2022-11-18T15:01:12;98996.72;;;14.06;66.59
23281;BME280;11809;56.390;-3.266;2022-11-18T15:03:39;98998.50;;;14.06;66.66
23281;BME280;11809;56.390;-3.266;2022-11-18T15:06:14;98993.38;;;14.04;66.61
23281;BME280;11809;56.390;-3.266;2022-11-18T15:08:43;98989.88;;;14.04;66.63
23281;BME280;11809;56.390;-3.266;2022-11-18T15:11:11;98970.69;;;13.90;66.91
23281;BME280;11809;56.390;-3.266;2022-11-18T15:13:38;98986.53;;;14.02;66.68
23281;BME280;11809;56.390;-3.266;2022-11-18T15:16:26;98994.31;;;14.03;66.71
23281;BME280;11809;56.390;-3.266;2022-11-18T15:18:56;98973.72;;;13.86;66.75
23281;BME280;11809;56.390;-3.266;2022-11-18T15:21:26;99009.31;;;14.03;66.59
23281;BME280;11809;56.390;-3.266;2022-11-18T15:23:53;99004.88;;;14.03;66.70
23281;BME280;11809;56.390;-3.266;2022-11-18T15:26:29;99012.09;;;14.01;66.58
23281;BME280;11809;56.390;-3.266;2022-11-18T15:29:00;99020.88;;;14.02;66.70
23281;BME280;11809;56.390;-3.266;2022-11-18T15:31:27;99025.31;;;14.01;66.82
23281;BME280;11809;56.390;-3.266;2022-11-18T15:33:54;99026.16;;;14.02;66.64
23281;BME280;11809;56.390;-3.266;2022-11-18T15:36:23;99003.63;;;13.86;66.80
23281;BME280;11809;56.390;-3.266;2022-11-18T15:38:52;99045.59;;;14.01;66.85
23281;BME280;11809;56.390;-3.266;2022-11-18T15:41:21;99055.19;;;14.02;66.80
23281;BME280;11809;56.390;-3.266;2022-11-18T15:43:50;99064.06;;;14.01;66.55